Time;durP1;ratioP1;P1;durP2;ratioP2;P2;SDS_P1;SDS_P2;PMS_P1;PMS_P2;Temp;Humidity;BMP_temperature;BMP_pressure;BME280_temperature;BME280_humidity;BME280_pressure;Samples;Min_cycle;Max_cycle;Signal;HPM_P1;HPM_P2
2023/08/28 00:00:49;;;;;;;10.55;9.15;;;;;;;11.57;100.00;101179.09;5032964;28;20362;-80
2023/08/28 00:03:15;;;;;;;10.90;9.70;;;;;;;11.48;100.00;101167.56;5032673;28;20491;-80
2023/08/28 00:05:40;;;;;;;10.60;9.48;;;;;;;11.41;100.00;101162.88;5015103;28;20041;-79
2023/08/28 00:08:06;;;;;;;11.63;9.50;;;;;;;11.41;100.00;101175.81;5032775;28;20485;-79
2023/08/28 00:10:31;;;;;;;12.27;9.95;;;;;;;11.41;100.00;101176.63;5032786;28;20025;-80
2023/08/28 00:12:56;;;;;;;11.73;10.23;;;;;;;11.41;100.00;101174.06;5032716;28;20124;-78
2023/08/28 00:15:22;;;;;;;12.40;9.68;;;;;;;11.36;100.00;101154.56;5032675;28;20349;-79
2023/08/28 00:17:48;;;;;;;12.05;10.77;;;;;;;11.52;100.00;101180.31;5032542;28;20022;-80
2023/08/28 00:20:15;;;;;;;12.35;10.50;;;;;;;11.40;100.00;101161.19;5031361;28;20022;-80
2023/08/28 00:22:40;;;;;;;12.02;10.70;;;;;;;11.38;100.00;101155.28;5032684;28;20033;-79
2023/08/28 00:25:07;;;;;;;12.35;9.95;;;;;;;11.43;100.00;101169.63;5036123;28;20045;-79
2023/08/28 00:27:32;;;;;;;12.52;10.15;;;;;;;11.29;100.00;101153.25;5052508;28;20443;-80
2023/08/28 00:29:58;;;;;;;10.75;9.18;;;;;;;11.38;100.00;101170.81;5052481;28;20049;-80
2023/08/28 00:32:25;;;;;;;12.50;10.30;;;;;;;11.39;100.00;101178.47;5052194;28;20029;-80
2023/08/28 00:34:51;;;;;;;12.90;8.93;;;;;;;11.41;100.00;101180.97;5052449;28;20025;-80
2023/08/28 00:37:16;;;;;;;11.48;9.50;;;;;;;11.28;100.00;101167.13;5052497;28;20070;-80
2023/08/28 00:39:41;;;;;;;14.30;10.15;;;;;;;11.18;100.00;101156.50;5052314;28;20029;-80
2023/08/28 00:42:07;;;;;;;12.00;9.15;;;;;;;11.19;100.00;101158.16;5052346;28;20072;-80
2023/08/28 00:44:32;;;;;;;14.40;9.40;;;;;;;11.12;100.00;101147.38;5052409;28;20456;-80
2023/08/28 00:46:58;;;;;;;10.60;9.15;;;;;;;11.19;100.00;101174.50;5052319;28;20517;-80
2023/08/28 00:49:24;;;;;;;10.60;9.30;;;;;;;11.06;100.00;101157.22;5052173;28;20477;-80
2023/08/28 00:51:49;;;;;;;12.35;9.55;;;;;;;11.14;100.00;101168.78;5052195;28;20090;-80
2023/08/28 00:54:15;;;;;;;12.00;9.73;;;;;;;11.10;100.00;101164.69;5052136;28;20057;-80
2023/08/28 00:56:40;;;;;;;10.55;9.45;;;;;;;10.95;100.00;101144.13;5052311;28;20021;-80
2023/08/28 00:59:06;;;;;;;12.27;9.38;;;;;;;11.01;100.00;101157.53;5052206;28;20036;-80
2023/08/28 01:01:31;;;;;;;11.68;9.68;;;;;;;10.96;100.00;101148.38;5052376;28;20543;-80
2023/08/28 01:03:57;;;;;;;11.15;9.70;;;;;;;10.92;100.00;101145.16;5052440;28;20025;-80
2023/08/28 01:06:34;;;;;;;12.20;9.15;;;;;;;10.94;100.00;101151.06;5052732;28;20018;-80
2023/08/28 01:09:09;;;;;;;11.90;9.13;;;;;;;10.85;100.00;101144.66;5037952;28;20029;-80
2023/08/28 01:11:49;;;;;;;11.32;9.30;;;;;;;10.89;100.00;101160.81;5056101;28;20492;-80
2023/08/28 01:14:21;;;;;;;11.00;9.52;;;;;;;10.88;100.00;101157.41;5055949;28;20025;-80
2023/08/28 01:16:49;;;;;;;13.43;9.77;;;;;;;10.84;100.00;101152.50;5055914;28;20036;-80
2023/08/28 01:19:37;;;;;;;11.52;10.07;;;;;;;10.67;100.00;101121.66;5055867;28;20048;-80
2023/08/28 01:22:11;;;;;;;13.18;9.65;;;;;;;10.79;100.00;101149.34;5055725;28;20037;-80
2023/08/28 01:24:45;;;;;;;11.45;9.93;;;;;;;10.65;100.00;101139.00;5035752;28;20040;-80
2023/08/28 01:27:13;;;;;;;12.35;9.93;;;;;;;10.54;100.00;101132.72;5035683;28;20021;-80
2023/08/28 01:29:38;;;;;;;10.90;9.80;;;;;;;10.69;100.00;101155.97;5035936;28;20022;-80
2023/08/28 01:32:03;;;;;;;13.23;10.75;;;;;;;10.71;100.00;101159.31;5035699;28;20435;-80
2023/08/28 01:34:29;;;;;;;12.25;10.95;;;;;;;10.67;100.00;101147.50;5035449;28;20025;-80
2023/08/28 01:37:02;;;;;;;12.10;10.65;;;;;;;10.65;100.00;101139.84;5017511;28;20029;-80
2023/08/28 01:39:36;;;;;;;13.55;11.38;;;;;;;10.66;100.00;101140.69;5033502;28;20064;-80
2023/08/28 01:42:06;;;;;;;13.27;10.85;;;;;;;10.52;100.00;101120.78;5035583;28;20036;-80
2023/08/28 01:44:33;;;;;;;14.43;11.05;;;;;;;10.44;100.00;101120.44;5035651;28;20025;-80
2023/08/28 01:46:58;;;;;;;14.98;11.10;;;;;;;10.41;100.00;101129.16;5035567;28;20474;-80
2023/08/28 01:49:28;;;;;;;12.45;11.20;;;;;;;10.29;100.00;101094.56;5035223;28;20028;-80
2023/08/28 01:51:53;;;;;;;12.35;11.05;;;;;;;10.54;100.00;101129.31;5017901;28;20056;-79
2023/08/28 01:54:19;;;;;;;12.75;11.05;;;;;;;10.43;100.00;101109.28;5035469;28;20398;-80
2023/08/28 01:56:44;;;;;;;12.60;10.90;;;;;;;10.49;100.00;101131.31;5035568;28;20113;-80
2023/08/28 01:59:10;;;;;;;13.70;11.63;;;;;;;10.48;100.00;101127.91;5035301;28;20033;-79
2023/08/28 02:04:06;;;;;;;13.95;11.40;;;;;;;10.36;100.00;101123.44;5040401;28;20053;-79
2023/08/28 02:06:31;;;;;;;14.73;12.43;;;;;;;10.29;100.00;101112.63;5035088;28;20531;-80
2023/08/28 02:08:57;;;;;;;13.55;11.77;;;;;;;10.38;100.00;101118.19;5035073;28;20508;-79
2023/08/28 02:11:22;;;;;;;13.55;11.95;;;;;;;10.43;100.00;101129.94;5034913;28;20030;-80
2023/08/28 02:13:47;;;;;;;13.00;11.57;;;;;;;10.40;100.00;101119.75;5034924;28;20029;-80
2023/08/28 02:16:13;;;;;;;13.43;12.02;;;;;;;10.19;100.00;101084.81;5034904;28;20072;-80
2023/08/28 02:18:39;;;;;;;12.88;11.48;;;;;;;10.36;100.00;101109.72;5034753;28;20117;-79
2023/08/28 02:21:04;;;;;;;13.70;11.43;;;;;;;10.14;100.00;101077.34;5034564;28;20469;-79
2023/08/28 02:23:29;;;;;;;13.15;11.10;;;;;;;10.29;100.00;101115.22;5034765;28;20035;-80
2023/08/28 02:25:55;;;;;;;13.18;11.15;;;;;;;10.28;100.00;101121.28;5034480;28;20028;-79
2023/08/28 02:28:21;;;;;;;11.93;10.73;;;;;;;10.12;100.00;101111.88;5034721;28;20469;-80
2023/08/28 02:30:47;;;;;;;12.20;11.00;;;;;;;10.09;100.00;101112.91;5034684;28;20119;-80
2023/08/28 02:33:13;;;;;;;11.73;10.52;;;;;;;10.01;100.00;101110.75;5034452;28;20060;-80
2023/08/28 02:35:39;;;;;;;12.50;10.88;;;;;;;10.02;100.00;101122.72;5034590;28;20029;-81
2023/08/28 02:38:08;;;;;;;12.25;11.05;;;;;;;9.94;100.00;101109.44;5034466;28;20369;-80
2023/08/28 02:40:34;;;;;;;12.73;10.68;;;;;;;10.01;100.00;101127.97;5034329;28;20034;-80
2023/08/28 02:43:05;;;;;;;12.68;10.98;;;;;;;9.99;100.00;101119.50;5034404;28;20026;-80
2023/08/28 02:45:34;;;;;;;12.02;10.80;;;;;;;9.91;100.00;101111.34;5034326;28;20033;-80
2023/08/28 02:47:59;;;;;;;11.55;10.27;;;;;;;9.77;100.00;101091.50;5034370;28;20385;-80
2023/08/28 02:50:25;;;;;;;12.40;11.10;;;;;;;9.70;100.00;101088.41;5033971;28;20025;-80
2023/08/28 02:52:50;;;;;;;12.93;10.90;;;;;;;9.87;100.00;101127.91;5034195;28;20484;-81
2023/08/28 02:55:15;;;;;;;13.35;11.27;;;;;;;9.86;100.00;101126.25;5034074;28;20032;-80
2023/08/28 02:57:41;;;;;;;13.57;11.18;;;;;;;9.73;100.00;101119.22;5033926;28;20056;-80
2023/08/28 03:00:07;;;;;;;12.27;10.98;;;;;;;9.76;100.00;101137.09;5034075;28;20556;-81
2023/08/28 03:02:32;;;;;;;12.60;11.40;;;;;;;9.80;100.00;101140.31;5033888;28;20468;-80
2023/08/28 03:04:57;;;;;;;13.48;11.45;;;;;;;9.82;100.00;101138.47;5033731;28;20076;-80
2023/08/28 03:07:23;;;;;;;13.27;11.88;;;;;;;9.62;100.00;101120.69;5033820;28;20100;-80
2023/08/28 03:09:48;;;;;;;15.18;13.38;;;;;;;9.84;100.00;101143.56;5033838;28;20033;-80
2023/08/28 03:12:13;;;;;;;14.02;12.52;;;;;;;9.82;100.00;101137.66;5033912;28;20026;-80
2023/08/28 03:14:39;;;;;;;13.43;12.07;;;;;;;9.80;100.00;101139.47;5033800;28;20018;-80
2023/08/28 03:17:05;;;;;;;14.20;12.75;;;;;;;9.80;100.00;101153.22;5033610;28;20030;-80
2023/08/28 03:19:30;;;;;;;13.25;11.85;;;;;;;9.63;100.00;101135.22;5033770;28;20029;-80
2023/08/28 03:21:55;;;;;;;13.95;12.50;;;;;;;9.66;100.00;101141.06;5033602;28;20034;-80
2023/08/28 03:24:21;;;;;;;15.95;12.90;;;;;;;9.70;100.00;101147.72;5033487;28;20431;-80
2023/08/28 03:26:46;;;;;;;13.80;12.05;;;;;;;9.62;100.00;101136.97;5033384;28;20022;-80
2023/08/28 03:29:11;;;;;;;13.23;11.85;;;;;;;9.70;100.00;101159.78;5032895;28;20024;-80
2023/08/28 03:31:36;;;;;;;13.50;11.90;;;;;;;9.65;100.00;101161.78;5033588;28;20041;-80
2023/08/28 03:34:04;;;;;;;14.05;12.63;;;;;;;9.67;100.00;101159.97;5033513;28;20485;-80
2023/08/28 03:36:30;;;;;;;14.70;12.48;;;;;;;9.59;100.00;101151.78;5033191;28;20100;-80
2023/08/28 03:38:55;;;;;;;14.10;12.60;;;;;;;9.60;100.00;101153.47;5033313;28;20128;-80
2023/08/28 03:41:20;;;;;;;13.68;12.20;;;;;;;9.61;100.00;101162.84;5033353;28;20103;-80
2023/08/28 03:43:46;;;;;;;15.50;12.13;;;;;;;9.41;100.00;101128.66;5014905;28;20034;-80
2023/08/28 03:46:11;;;;;;;14.70;12.93;;;;;;;9.59;100.00;101173.25;5033143;28;20030;-80
2023/08/28 03:48:36;;;;;;;14.18;12.65;;;;;;;9.61;100.00;101173.16;5033326;28;20083;-80
2023/08/28 03:51:01;;;;;;;15.13;13.45;;;;;;;9.61;100.00;101173.16;5032958;28;20060;-80
2023/08/28 03:53:27;;;;;;;13.60;12.15;;;;;;;9.61;100.00;101171.41;5015355;28;20388;-80
2023/08/28 03:55:53;;;;;;;16.02;13.27;;;;;;;9.62;100.00;101179.97;5033188;28;20025;-80
2023/08/28 03:58:20;;;;;;;14.48;12.82;;;;;;;9.65;100.00;101178.09;5033001;28;20041;-80
2023/08/28 04:00:46;;;;;;;16.38;13.20;;;;;;;9.52;100.00;101146.13;5033183;28;20051;-80
2023/08/28 04:03:11;;;;;;;19.35;13.93;;;;;;;9.69;100.00;101179.59;5036740;28;20045;-79
2023/08/28 04:05:38;;;;;;;16.15;14.40;;;;;;;9.67;100.00;101167.69;5033018;28;20033;-80
2023/08/28 04:08:03;;;;;;;16.83;14.98;;;;;;;9.84;100.00;101195.16;5032697;28;20076;-80
2023/08/28 04:10:29;;;;;;;17.05;14.60;;;;;;;9.81;100.00;101188.41;5032419;28;20057;-79
2023/08/28 04:12:54;;;;;;;17.52;15.65;;;;;;;9.86;100.00;101194.16;5032931;28;20104;-80
2023/08/28 04:15:20;;;;;;;17.00;15.18;;;;;;;9.90;100.00;101205.97;5032654;28;20528;-80
2023/08/28 04:17:45;;;;;;;18.15;16.08;;;;;;;9.92;100.00;101198.97;5032758;28;20389;-80
2023/08/28 04:20:13;;;;;;;19.95;16.80;;;;;;;9.92;100.00;101196.38;5032849;28;20389;-80
2023/08/28 04:22:43;;;;;;;21.52;15.98;;;;;;;9.80;100.00;101176.41;5032410;28;20465;-80
2023/08/28 04:25:09;;;;;;;19.70;16.80;;;;;;;9.99;100.00;101209.78;5032445;28;20022;-80
2023/08/28 04:27:35;;;;;;;18.98;15.85;;;;;;;9.97;100.00;101211.63;5032496;28;20025;-80
2023/08/28 04:30:01;;;;;;;17.83;15.82;;;;;;;9.92;100.00;101198.13;5032468;28;20068;-80
2023/08/28 04:32:26;;;;;;;19.13;17.13;;;;;;;9.90;100.00;101190.47;5032620;28;20064;-80
2023/08/28 04:34:51;;;;;;;19.13;17.13;;;;;;;9.87;100.00;101184.66;5032741;28;20385;-80
2023/08/28 04:37:17;;;;;;;20.90;16.02;;;;;;;10.05;100.00;101210.31;5031088;28;20037;-80
2023/08/28 04:39:43;;;;;;;19.92;16.38;;;;;;;9.96;100.00;101195.31;5032477;28;20484;-80
2023/08/28 04:42:09;;;;;;;19.00;16.05;;;;;;;10.00;100.00;101196.81;5034039;28;20033;-80
2023/08/28 04:44:35;;;;;;;17.25;15.45;;;;;;;10.11;100.00;101214.28;5036803;28;20460;-80
2023/08/28 04:47:00;;;;;;;17.48;15.63;;;;;;;10.10;100.00;101214.38;5036657;28;20045;-80
2023/08/28 04:49:25;;;;;;;20.25;16.83;;;;;;;10.16;100.00;101214.03;5036739;28;20033;-80
2023/08/28 04:51:51;;;;;;;18.77;16.15;;;;;;;10.18;100.00;101205.28;5036110;28;20025;-80
2023/08/28 04:54:16;;;;;;;19.58;16.67;;;;;;;10.21;100.00;101205.13;5036531;28;20041;-80
2023/08/28 04:56:41;;;;;;;16.85;15.13;;;;;;;10.27;100.00;101198.81;5036438;28;20113;-80
2023/08/28 04:59:06;;;;;;;18.85;16.83;;;;;;;10.33;100.00;101194.16;5036237;28;20065;-80
2023/08/28 05:01:32;;;;;;;18.42;16.08;;;;;;;10.35;100.00;101183.75;5036383;28;20045;-80
2023/08/28 05:03:58;;;;;;;22.30;16.65;;;;;;;10.34;100.00;101164.84;5036210;28;20052;-80
2023/08/28 05:06:24;;;;;;;19.58;17.38;;;;;;;10.50;100.00;101180.28;5036446;28;20033;-80
2023/08/28 05:08:49;;;;;;;20.15;16.95;;;;;;;10.55;100.00;101177.44;5036015;28;20041;-80
2023/08/28 05:11:14;;;;;;;21.42;18.65;;;;;;;10.55;100.00;101155.03;5017895;28;20495;-80
2023/08/28 05:13:40;;;;;;;22.00;18.75;;;;;;;10.70;100.00;101166.22;5036075;28;20025;-80
2023/08/28 05:16:05;;;;;;;21.13;17.35;;;;;;;10.79;100.00;101160.53;5035865;28;20021;-80
2023/08/28 05:18:30;;;;;;;20.50;18.10;;;;;;;10.90;100.00;101167.63;5036336;28;20095;-80
2023/08/28 05:20:56;;;;;;;19.80;17.20;;;;;;;10.83;100.00;101135.34;5035654;28;20025;-80
2023/08/28 05:23:25;;;;;;;20.98;17.38;;;;;;;11.19;100.00;101184.84;5035733;28;20036;-79
2023/08/28 05:25:54;;;;;;;19.67;17.30;;;;;;;11.32;100.00;101179.78;5035717;28;20022;-80
2023/08/28 05:28:19;;;;;;;20.92;18.23;;;;;;;11.34;100.00;101154.66;5032934;28;20040;-78
2023/08/28 05:30:45;;;;;;;20.35;18.15;;;;;;;11.56;100.00;101180.03;5015956;28;20116;-80
2023/08/28 05:33:10;;;;;;;22.85;18.10;;;;;;;11.68;100.00;101178.44;5016136;28;20034;-79
2023/08/28 05:35:35;;;;;;;21.00;18.73;;;;;;;11.80;100.00;101182.03;5016118;28;20504;-80
2023/08/28 05:38:01;;;;;;;19.73;17.63;;;;;;;11.91;100.00;101187.41;5015782;28;20026;-80
2023/08/28 05:40:26;;;;;;;18.65;16.58;;;;;;;12.03;100.00;101184.03;5015823;28;20037;-79
2023/08/28 05:42:52;;;;;;;19.10;17.10;;;;;;;12.06;100.00;101170.88;5015780;28;20101;-80
2023/08/28 05:45:17;;;;;;;19.40;17.27;;;;;;;12.25;100.00;101170.53;5015702;28;20054;-80
2023/08/28 05:47:43;;;;;;;19.05;17.05;;;;;;;12.41;100.00;101180.75;5015414;28;20037;-80
2023/08/28 05:50:08;;;;;;;18.95;16.95;;;;;;;12.55;100.00;101173.72;4997527;28;20038;-80
2023/08/28 05:52:34;;;;;;;20.27;17.63;;;;;;;13.05;100.00;101158.31;5014809;28;20076;-80
2023/08/28 05:54:59;;;;;;;16.40;14.65;;;;;;;14.55;100.00;101166.69;5015622;28;20021;-80
2023/08/28 05:57:25;;;;;;;15.20;13.27;;;;;;;16.07;100.00;101169.66;5015529;28;20040;-80
2023/08/28 05:59:50;;;;;;;12.55;10.75;;;;;;;17.51;100.00;101187.19;5015405;28;20034;-80
2023/08/28 06:02:17;;;;;;;12.15;10.15;;;;;;;18.36;94.92;101168.34;5015053;28;20069;-80
2023/08/28 06:04:52;;;;;;;11.07;9.13;;;;;;;19.52;89.28;101188.16;5027742;28;20123;-80
2023/08/28 06:07:20;;;;;;;11.48;8.27;;;;;;;20.17;84.07;101187.09;5035070;28;20032;-80
2023/08/28 06:09:45;;;;;;;11.25;7.85;;;;;;;19.92;81.84;101182.56;5035010;28;20036;-80
2023/08/28 06:12:11;;;;;;;10.88;8.35;;;;;;;19.65;82.47;101181.63;5033544;28;20037;-78
2023/08/28 06:14:36;;;;;;;10.05;7.78;;;;;;;19.62;83.46;101178.50;5035586;28;20029;-78
2023/08/28 06:17:21;;;;;;;11.05;7.88;;;;;;;20.50;86.70;101180.34;5034634;28;20017;-80
2023/08/28 06:19:46;;;;;;;9.95;7.65;;;;;;;21.30;76.00;101167.88;5034828;28;20025;-79
2023/08/28 06:22:11;;;;;;;9.35;7.18;;;;;;;21.82;72.95;101162.44;5034714;28;20029;-79
2023/08/28 06:24:37;;;;;;;8.68;6.93;;;;;;;;;;5034616;28;20033;-80
2023/08/28 06:27:02;;;;;;;8.82;6.68;;;;;;;23.00;67.47;101174.28;5016359;28;20495;-80
2023/08/28 06:29:27;;;;;;;9.40;6.88;;;;;;;23.24;64.30;101168.13;5034712;28;20025;-81
2023/08/28 06:31:53;;;;;;;7.47;6.07;;;;;;;23.50;63.52;101172.28;5034465;28;20081;-80
2023/08/28 06:34:19;;;;;;;7.72;5.80;;;;;;;23.80;62.85;101160.94;5034806;28;20079;-79
2023/08/28 06:36:45;;;;;;;11.07;5.30;;;;;;;24.17;60.93;101178.63;5017015;28;20033;-80
2023/08/28 06:39:11;;;;;;;7.43;5.53;;;;;;;24.45;60.56;101196.59;5034357;28;20111;-80
2023/08/28 06:41:37;;;;;;;8.20;4.75;;;;;;;24.59;58.98;101179.97;5034604;28;20033;-80
2023/08/28 06:44:04;;;;;;;6.85;4.47;;;;;;;24.85;57.71;101184.81;5034272;28;20385;-80
2023/08/28 06:46:30;;;;;;;7.03;5.35;;;;;;;25.00;58.62;101180.38;5034373;28;20033;-80
2023/08/28 06:48:55;;;;;;;8.63;5.70;;;;;;;25.20;56.55;101191.25;5034619;28;20037;-81
2023/08/28 06:51:21;;;;;;;8.25;4.47;;;;;;;25.55;56.85;101180.88;5034317;28;20045;-82
2023/08/28 06:53:48;;;;;;;8.02;4.75;;;;;;;25.64;54.22;101175.28;5034257;28;20120;-81
2023/08/28 06:56:13;;;;;;;7.40;4.18;;;;;;;25.81;54.14;101186.50;5047759;23;20057;-81
2023/08/28 06:58:39;;;;;;;8.23;5.07;;;;;;;25.74;53.32;101196.16;5034174;28;20378;-81
2023/08/28 07:01:04;;;;;;;9.07;5.18;;;;;;;25.79;53.04;101190.34;5034146;28;20025;-81
2023/08/28 07:03:30;;;;;;;5.55;3.95;;;;;;;26.04;52.71;101204.81;5033961;28;20021;-81
2023/08/28 07:05:55;;;;;;;6.07;3.90;;;;;;;26.15;53.75;101206.97;5033012;28;20030;-81
2023/08/28 07:08:20;;;;;;;8.65;5.10;;;;;;;25.83;52.31;101200.34;5034040;28;20385;-81
2023/08/28 07:10:46;;;;;;;6.68;4.70;;;;;;;25.25;54.35;101217.09;5033761;28;20025;-80
2023/08/28 07:13:12;;;;;;;5.93;2.85;;;;;;;23.93;61.32;101216.56;5033849;28;20484;-81
2023/08/28 07:15:40;;;;;;;9.13;5.45;;;;;;;22.30;64.80;101226.66;5033621;28;20431;-83
2023/08/28 07:18:05;;;;;;;8.25;4.75;;;;;;;21.04;70.35;101201.19;5033876;28;20030;-81
2023/08/28 07:20:31;;;;;;;6.05;4.75;;;;;;;20.25;75.29;101195.00;5033910;28;20029;-81
2023/08/28 07:22:57;;;;;;;6.63;4.60;;;;;;;19.61;80.00;101184.69;5033733;28;20469;-81
2023/08/28 07:27:57;;;;;;;7.25;5.85;;;;;;;18.82;86.06;101209.50;5099115;22;20076;-81
2023/08/28 07:30:23;;;;;;;7.72;4.65;;;;;;;18.33;89.92;101159.00;5033288;28;20021;-80
2023/08/28 07:32:48;;;;;;;6.57;4.70;;;;;;;18.41;90.67;101209.78;5033724;28;20041;-80
2023/08/28 07:35:13;;;;;;;8.27;5.93;;;;;;;18.20;93.40;101205.50;5033707;28;20025;-80
2023/08/28 07:37:40;;;;;;;8.80;6.43;;;;;;;18.10;94.20;101212.53;5004352;28;20038;-81
2023/08/28 07:40:06;;;;;;;8.18;5.30;;;;;;;18.05;96.13;101197.22;5014171;28;20026;-81
2023/08/28 07:42:32;;;;;;;8.00;6.10;;;;;;;18.06;95.37;101203.28;5013855;28;20030;-80
2023/08/28 07:44:58;;;;;;;7.55;5.85;;;;;;;18.03;93.51;101199.16;5013653;28;20022;-80
2023/08/28 07:47:23;;;;;;;7.28;5.10;;;;;;;17.98;96.47;101190.88;5013579;28;20037;-79
2023/08/28 07:49:48;;;;;;;5.78;4.05;;;;;;;18.05;97.33;101192.00;5013559;28;20100;-80
2023/08/28 07:52:14;;;;;;;9.70;5.28;;;;;;;18.19;98.99;101203.88;5013511;28;20104;-81
2023/08/28 07:54:39;;;;;;;8.25;4.75;;;;;;;18.29;97.06;101196.03;5013343;28;20032;-78
2023/08/28 07:57:06;;;;;;;6.40;4.85;;;;;;;18.47;96.74;101204.81;5013424;28;20042;-79
2023/08/28 07:59:32;;;;;;;6.70;4.18;;;;;;;18.49;96.63;101181.97;5013601;28;20049;-77
2023/08/28 08:01:57;;;;;;;7.88;5.03;;;;;;;18.68;94.24;101196.00;5013220;28;20065;-80
2023/08/28 08:04:23;;;;;;;6.05;4.07;;;;;;;18.74;93.33;101190.22;4995439;28;20555;-80
2023/08/28 08:06:48;;;;;;;5.93;3.80;;;;;;;18.72;92.67;101160.75;5013315;28;20080;-80
2023/08/28 08:09:14;;;;;;;7.22;4.15;;;;;;;18.99;90.01;101197.47;5013387;28;20026;-80
2023/08/28 08:11:39;;;;;;;5.45;3.38;;;;;;;19.14;89.69;101197.81;5012806;28;20537;-81
2023/08/28 08:14:04;;;;;;;6.00;3.67;;;;;;;19.23;89.63;101201.38;5013188;28;20033;-78
2023/08/28 08:16:30;;;;;;;4.43;3.30;;;;;;;19.33;85.75;101199.56;5012920;28;20022;-80
2023/08/28 08:18:55;;;;;;;5.47;2.90;;;;;;;19.29;88.31;101170.22;4995133;28;20038;-81
2023/08/28 08:21:21;;;;;;;8.70;4.35;;;;;;;19.49;86.36;101205.00;5013198;28;20454;-81
2023/08/28 08:23:47;;;;;;;4.88;3.65;;;;;;;19.64;87.04;101203.56;4995482;28;20037;-81
2023/08/28 08:26:13;;;;;;;3.72;2.83;;;;;;;19.64;84.98;101179.16;5016606;28;20046;-81
2023/08/28 08:28:39;;;;;;;5.68;3.10;;;;;;;19.79;85.08;101205.72;5032453;28;20378;-80
2023/08/28 08:31:05;;;;;;;7.72;2.92;;;;;;;19.85;85.56;101208.53;5032547;28;20495;-80
2023/08/28 08:33:30;;;;;;;4.80;2.70;;;;;;;19.85;84.41;101211.16;5014712;28;20025;-81
2023/08/28 08:35:56;;;;;;;4.85;2.90;;;;;;;20.02;88.19;101192.03;5032850;28;20424;-81
2023/08/28 08:38:21;;;;;;;5.43;3.80;;;;;;;20.25;84.33;101209.91;5032625;28;20021;-81
2023/08/28 08:40:51;;;;;;;7.18;3.83;;;;;;;20.21;84.03;101193.66;5032467;28;20030;-80
2023/08/28 08:43:17;;;;;;;5.47;3.50;;;;;;;20.36;82.83;101208.91;5032534;28;20057;-81
2023/08/28 08:45:44;;;;;;;5.85;3.33;;;;;;;20.52;83.92;101212.50;5032472;28;20393;-81
2023/08/28 08:48:14;;;;;;;4.45;2.72;;;;;;;20.49;85.98;101219.84;5032398;28;20030;-82
2023/08/28 08:50:40;;;;;;;6.18;3.38;;;;;;;20.18;83.13;101214.97;5032849;28;20073;-82
2023/08/28 08:53:12;;;;;;;6.00;2.97;;;;;;;20.05;87.15;101214.47;5032418;28;20113;-80
2023/08/28 08:55:43;;;;;;;3.47;2.80;;;;;;;19.85;86.26;101208.53;5032240;28;20029;-82
2023/08/28 08:58:14;;;;;;;5.85;3.20;;;;;;;19.44;86.04;101194.94;5014677;28;20029;-81
2023/08/28 09:00:43;;;;;;;4.72;2.70;;;;;;;19.29;88.75;101185.13;5032391;28;20033;-80
2023/08/28 09:05:46;;;;;;;4.75;2.78;;;;;;;18.87;89.13;101209.06;5131675;22;20123;-80
2023/08/28 09:08:12;;;;;;;4.45;2.38;;;;;;;18.86;93.17;101221.31;5013861;28;20044;-80
2023/08/28 09:10:38;;;;;;;5.40;2.58;;;;;;;18.59;91.98;101214.19;5031919;28;20025;-81
2023/08/28 09:13:04;;;;;;;8.00;3.90;;;;;;;18.35;93.08;101226.84;5032122;28;20354;-79
2023/08/28 09:15:29;;;;;;;7.18;4.20;;;;;;;18.11;95.14;101231.63;5031971;28;20507;-81
2023/08/28 09:18:00;;;;;;;6.40;4.15;;;;;;;17.90;97.30;101232.56;5031811;28;20026;-81
2023/08/28 09:20:26;;;;;;;7.10;4.60;;;;;;;17.80;99.42;101221.28;5032169;28;20025;-81
2023/08/28 09:22:53;;;;;;;8.05;4.53;;;;;;;17.66;100.00;101214.56;5013993;28;20496;-81
2023/08/28 09:25:23;;;;;;;6.90;4.75;;;;;;;17.77;100.00;101216.28;5030807;28;20037;-80
2023/08/28 09:27:51;;;;;;;6.07;4.10;;;;;;;17.82;99.62;101213.28;5032907;28;20469;-80
2023/08/28 09:30:36;;;;;;;7.10;4.38;;;;;;;18.06;99.99;101218.97;5035484;28;20025;-81
2023/08/28 09:33:04;;;;;;;6.03;4.47;;;;;;;18.17;98.81;101191.88;5035475;28;20033;-81
2023/08/28 09:35:36;;;;;;;6.63;3.90;;;;;;;18.60;96.62;101215.81;5035804;28;20022;-81
2023/08/28 09:59:08;;;;;;;4.63;2.15;;;;;;;20.36;87.80;101199.22;5555090;22;20060;-79
2023/08/28 10:11:46;;;;;;;2.55;1.80;;;;;;;21.24;83.60;101234.16;4992845;28;19914;-79
2023/08/28 10:14:33;;;;;;;3.78;1.70;;;;;;;21.23;82.26;101227.22;4993292;28;20026;-79
2023/08/28 10:17:17;;;;;;;2.75;1.60;;;;;;;20.31;83.04;101084.25;4993482;28;20038;-78
2023/08/28 10:19:48;;;;;;;2.63;1.48;;;;;;;20.33;81.26;101069.19;4993444;28;20125;-79
2023/08/28 10:22:36;;;;;;;3.00;1.48;;;;;;;20.46;80.22;101075.88;4993953;28;20529;-78
2023/08/28 10:25:01;;;;;;;1.75;1.40;;;;;;;21.44;77.54;101219.03;4993465;28;20072;-79
2023/08/28 10:27:43;;;;;;;2.50;1.40;;;;;;;21.20;76.34;101167.16;4993096;28;20462;-79
2023/08/28 10:30:11;;;;;;;1.50;1.33;;;;;;;21.42;74.21;101211.25;4993127;28;20038;-79
2023/08/28 10:32:38;;;;;;;2.92;1.45;;;;;;;21.52;73.91;101215.56;4993356;28;20030;-78
2023/08/28 10:35:04;;;;;;;3.08;1.60;;;;;;;21.50;71.69;101225.44;4993261;28;20126;-78
2023/08/28 10:37:31;;;;;;;2.17;1.35;;;;;;;21.32;74.87;101225.50;4993064;28;20069;-77
2023/08/28 10:40:01;;;;;;;4.28;2.20;;;;;;;21.30;75.20;101224.84;4991858;28;20034;-78
2023/08/28 10:42:29;;;;;;;3.17;1.63;;;;;;;21.29;73.40;101212.69;4993064;28;20137;-78
2023/08/28 10:44:55;;;;;;;3.30;1.80;;;;;;;21.44;71.57;101229.53;4992925;28;20030;-78
2023/08/28 10:47:21;;;;;;;2.28;1.40;;;;;;;21.46;71.10;101225.75;4999413;28;20037;-77
2023/08/28 10:49:46;;;;;;;2.33;1.40;;;;;;;21.40;70.98;101223.75;5054294;28;20035;-78
2023/08/28 10:52:12;;;;;;;3.00;1.27;;;;;;;21.41;72.09;101209.63;5054022;28;20044;-79
2023/08/28 10:54:39;;;;;;;2.80;1.33;;;;;;;21.30;72.18;101207.28;5054284;28;20060;-78
2023/08/28 10:57:10;;;;;;;2.47;1.60;;;;;;;21.29;72.03;101223.19;5054189;28;20025;-78
2023/08/28 10:59:43;;;;;;;2.55;1.60;;;;;;;21.09;73.15;101191.88;5053702;28;20041;-77
2023/08/28 11:02:09;;;;;;;3.25;1.88;;;;;;;21.21;73.64;101221.31;5053899;28;20024;-79
2023/08/28 11:04:37;;;;;;;3.20;1.75;;;;;;;21.11;73.51;101213.53;5053897;28;20021;-79
2023/08/28 11:07:03;;;;;;;2.58;1.80;;;;;;;20.94;74.01;101216.22;5053736;28;20246;-78
2023/08/28 11:09:28;;;;;;;3.13;2.00;;;;;;;20.87;73.51;101216.03;5054042;28;20115;-78
2023/08/28 11:12:00;;;;;;;3.97;1.95;;;;;;;20.63;75.32;101214.88;5053579;28;20120;-79
2023/08/28 11:14:33;;;;;;;3.63;1.95;;;;;;;20.17;77.87;101208.06;5053500;28;20534;-80
2023/08/28 11:17:05;;;;;;;3.28;2.22;;;;;;;19.98;79.29;101216.06;5053650;28;20050;-79
2023/08/28 11:19:31;;;;;;;3.35;2.15;;;;;;;19.76;79.62;101212.91;5053721;28;20112;-79
2023/08/28 11:21:59;;;;;;;3.22;2.20;;;;;;;19.64;81.86;101200.94;5053730;28;20520;-79
2023/08/28 11:24:26;;;;;;;3.00;2.17;;;;;;;19.70;81.57;101194.31;5053534;28;20489;-78
2023/08/28 11:26:52;;;;;;;3.08;2.13;;;;;;;19.74;83.89;101180.75;5053158;28;20039;-77
2023/08/28 11:29:27;;;;;;;3.10;2.28;;;;;;;19.84;80.40;101199.03;5053194;28;20029;-77
2023/08/28 11:31:52;;;;;;;1.73;1.63;;;;;;;20.00;82.24;101201.00;5053215;28;20173;-79
2023/08/28 11:34:18;;;;;;;3.97;2.40;;;;;;;19.91;78.05;101184.38;5053434;28;20562;-78
2023/08/28 11:36:45;;;;;;;2.35;2.15;;;;;;;20.04;79.06;101195.31;5053589;28;20045;-79
2023/08/28 11:39:23;;;;;;;2.47;1.98;;;;;;;20.18;76.86;101201.84;5053105;28;20032;-78
2023/08/28 11:41:52;;;;;;;2.67;1.70;;;;;;;20.33;75.00;101202.13;5053210;28;20025;-79
2023/08/28 11:44:17;;;;;;;1.95;0.75;;;;;;;20.51;71.73;101194.28;5053031;28;20025;-76
2023/08/28 11:46:42;;;;;;;2.47;1.15;;;;;;;20.36;74.16;101138.06;5053236;28;20032;-78
2023/08/28 11:49:10;;;;;;;2.08;0.98;;;;;;;20.81;73.88;101193.03;5053163;28;20052;-79
2023/08/28 11:51:36;;;;;;;1.45;0.77;;;;;;;20.89;75.55;101174.69;5034867;28;20071;-79